Hoffman, Oklahoma
Current Conditions -  °F | °C
As of 4:15 PM on Tuesday 21 Oct 2014 (Local Time) from KOKM Reporting Station
Broken Clouds Broken Clouds  
Wind Chill: 81°   Ceiling: 4400
Heat Index: 82°   Visibility: 10mi
Dew Point: 61°   Wind: 6mph
Humidity: 52%   Direction: 170°S
Pressure: 30.02"   Gusts: NA
Location:  35.4729°N, 95.9709°W
Report Text: KOKM 212115Z AUTO 17005KT 10SM BKN044 27/16 A3002 RMK AO2 T02700163
Loading
Personal Weather Stations






























Interactive Weather Map
Tropical Storm Tracking
New forecast layout! Learn more

10-Day Weather Forecast

Advertisements
Track Severe Weather on mobile